ESMX

Växjö Kronoberg Airport

Växjö, Sweden
METAR ESMX 151650Z AUTO 06005KT 9999 -SN OVC010/// 00/M01 Q1030 RESHUP REUP
Observed Flight Rules
Dec-15 @ 16:50 UTC (23 minutes ago) Marginal Visual Flight Rules
Wind Visibility Clouds Conditions
60° at 5 knots 10,000+ meters
  • Overcast at 1,000' AGL
  • Light Snow
  • Unknown precipitation
Temperatures Readings
Current 0°C / 32°F
Dewpoint -1°C / 30°F
Humidity 93%
Altimeter 30.41" Hg
Pressure 1030 hPa
Elevation 186
METAR ESMX 151650Z AUTO 06005KT 9999 -SN OVC010/// 00/M01 Q1030 RESHUP REUP
Observed Flight Rules
Dec-15 @ 16:50 UTC
(23 minutes ago)
MVFR
Wind Visibility
60° at 5 knots 10,000+ meters
Clouds
  • Overcast at 1,000' AGL
Conditions
  • Light Snow
  • Unknown precipitation
Temperature Dewpoint
0°C / 32°F -1°C / 30°F
Humidity Altimeter Pressure
93% 30.41" Hg 1030 hPa